Time;durP1;ratioP1;P1;durP2;ratioP2;P2;SDS_P1;SDS_P2;PMS_P1;PMS_P2;Temp;Humidity;BMP_temperature;BMP_pressure;BME280_temperature;BME280_humidity;BME280_pressure;Samples;Min_cycle;Max_cycle;Signal;HPM_P1;HPM_P2
2023/05/26 16:00:37;;;;;;;1.50;1.00;;;;;;;27.96;36.50;102597.97;6156625;22;1479383;-80
2023/05/26 16:03:02;;;;;;;1.75;1.08;;;;;;;27.89;36.09;102589.03;6245266;23;20065;-81
2023/05/26 16:05:28;;;;;;;1.00;0.88;;;;;;;27.81;37.41;102590.25;6246952;23;20424;-79
2023/05/26 16:07:54;;;;;;;1.45;0.88;;;;;;;27.50;36.55;102599.00;6247222;22;20043;-79
2023/05/26 16:10:20;;;;;;;2.05;1.10;;;;;;;27.13;37.53;102585.50;6246771;22;20000;-79
2023/05/26 16:12:45;;;;;;;1.55;0.90;;;;;;;26.67;38.68;102579.75;6247213;23;19997;-78
2023/05/26 16:15:11;;;;;;;2.28;0.90;;;;;;;26.28;39.63;102579.34;6247043;22;20004;-79
2023/05/26 16:17:37;;;;;;;2.55;1.27;;;;;;;25.96;40.44;102569.66;6245561;23;20007;-79
2023/05/26 16:20:03;;;;;;;3.30;1.38;;;;;;;25.80;40.64;102572.00;6245135;23;20008;-79
2023/05/26 16:22:28;;;;;;;5.05;1.58;;;;;;;25.65;41.03;102574.31;6246602;22;20015;-78
2023/05/26 16:24:54;;;;;;;1.60;1.00;;;;;;;25.96;40.32;102565.00;6195058;23;20344;-80
2023/05/26 16:27:20;;;;;;;4.78;1.10;;;;;;;26.15;40.32;102574.03;6219961;23;20087;-81
2023/05/26 16:29:45;;;;;;;1.27;1.05;;;;;;;28.06;37.58;102569.69;6219997;23;20004;-79
2023/05/26 16:32:11;;;;;;;1.85;1.20;;;;;;;30.10;33.67;102568.84;6219926;23;20015;-80
2023/05/26 16:34:36;;;;;;;2.13;0.90;;;;;;;29.76;34.21;102559.94;6246890;23;20070;-79
2023/05/26 16:37:02;;;;;;;3.40;0.70;;;;;;;28.75;35.08;102561.13;6245028;23;20008;-79
2023/05/26 16:39:28;;;;;;;1.23;0.90;;;;;;;27.93;36.32;102553.41;6220191;23;20004;-80
2023/05/26 16:41:53;;;;;;;1.42;0.82;;;;;;;26.97;38.11;102552.03;6245358;23;20464;-80
2023/05/26 16:44:19;;;;;;;2.35;1.05;;;;;;;26.30;39.43;102540.47;6246882;22;20443;-80
2023/05/26 16:46:45;;;;;;;3.53;1.80;;;;;;;25.74;40.54;102534.34;6219780;23;20004;-80
2023/05/26 16:49:11;;;;;;;1.15;0.90;;;;;;;25.45;40.68;102547.03;6195000;23;20005;-79
2023/05/26 16:51:38;;;;;;;1.77;0.90;;;;;;;24.98;41.52;102541.22;6244874;23;20004;-81
2023/05/26 16:54:04;;;;;;;1.35;0.80;;;;;;;24.75;42.45;102545.50;6219460;23;20036;-79
2023/05/26 16:56:30;;;;;;;2.20;1.10;;;;;;;24.66;43.17;102538.59;6219987;23;20004;-79
2023/05/26 16:58:55;;;;;;;0.98;0.80;;;;;;;24.48;42.94;102533.94;6244802;23;20004;-79
2023/05/26 17:01:21;;;;;;;1.83;0.80;;;;;;;24.30;43.65;102531.94;6169556;23;20031;-80
2023/05/26 17:03:47;;;;;;;2.45;1.00;;;;;;;24.42;44.18;102543.03;6194395;23;20016;-79
2023/05/26 17:06:12;;;;;;;2.35;1.10;;;;;;;24.47;45.01;102540.47;6219352;23;20000;-80
2023/05/26 17:08:38;;;;;;;1.60;1.00;;;;;;;24.74;44.99;102541.09;6169879;23;20010;-80
2023/05/26 17:11:04;;;;;;;2.67;0.95;;;;;;;25.01;45.27;102538.88;6194175;23;20336;-80
2023/05/26 17:13:30;;;;;;;2.55;1.10;;;;;;;25.16;44.01;102537.66;6246424;23;20019;-79
2023/05/26 17:15:56;;;;;;;2.22;0.90;;;;;;;25.32;43.09;102533.44;6219910;23;20000;-79
2023/05/26 17:18:23;;;;;;;1.23;1.08;;;;;;;25.64;43.12;102528.53;6194263;23;20011;-80
2023/05/26 17:20:49;;;;;;;2.00;1.50;;;;;;;26.98;41.53;102530.78;6219570;23;20001;-80
2023/05/26 17:23:14;;;;;;;1.95;1.60;;;;;;;29.45;37.85;102529.06;6219654;23;20007;-80
2023/05/26 17:25:40;;;;;;;1.75;1.30;;;;;;;29.28;36.38;102529.16;6194426;23;20012;-80
2023/05/26 17:28:06;;;;;;;2.25;1.73;;;;;;;28.34;38.00;102518.13;6245972;23;20000;-80
2023/05/26 17:30:35;;;;;;;2.08;1.40;;;;;;;29.52;35.52;102517.81;6194074;23;20007;-79
2023/05/26 17:33:01;;;;;;;1.90;1.23;;;;;;;27.73;37.53;102516.00;6194614;23;20000;-79
2023/05/26 17:35:30;;;;;;;3.05;1.10;;;;;;;26.29;40.92;102498.28;6169555;23;20066;-78
2023/05/26 17:37:56;;;;;;;3.90;1.30;;;;;;;25.34;43.20;102514.78;6194685;23;20004;-78
2023/05/26 17:40:21;;;;;;;2.05;1.50;;;;;;;24.36;44.86;102498.03;6246246;23;20320;-81
2023/05/26 17:42:47;;;;;;;1.50;1.17;;;;;;;23.66;46.84;102509.13;6219185;23;20007;-80
2023/05/26 17:45:13;;;;;;;1.85;1.00;;;;;;;23.19;48.62;102505.78;6194450;23;20007;-81
2023/05/26 17:47:38;;;;;;;2.78;1.50;;;;;;;22.99;50.46;102499.53;6219014;23;20011;-81
2023/05/26 17:50:05;;;;;;;2.80;1.13;;;;;;;22.99;50.76;102499.53;6219014;23;20004;-80
2023/05/26 17:52:30;;;;;;;3.40;1.25;;;;;;;22.88;50.10;102481.81;6219291;23;20027;-79
2023/05/26 17:54:56;;;;;;;2.17;1.30;;;;;;;23.26;49.51;102500.28;6194085;23;20031;-80
2023/05/26 17:57:22;;;;;;;3.13;1.27;;;;;;;23.32;49.31;102504.06;6218955;23;20032;-80
2023/05/26 17:59:47;;;;;;;1.75;1.23;;;;;;;23.68;49.59;102514.38;6175198;23;20008;-80
2023/05/26 18:02:13;;;;;;;2.58;1.33;;;;;;;24.15;47.34;102503.94;6244434;23;20000;-80
2023/05/26 18:04:39;;;;;;;2.17;1.00;;;;;;;23.84;47.68;102504.81;6194509;23;20385;-80
2023/05/26 18:07:05;;;;;;;4.30;1.10;;;;;;;23.10;49.42;102496.13;6246674;23;20080;-79
2023/05/26 18:09:31;;;;;;;1.92;1.08;;;;;;;22.77;51.50;102497.03;6246757;23;20000;-79
2023/05/26 18:11:56;;;;;;;4.20;1.33;;;;;;;22.38;53.39;102501.53;6247913;22;20008;-78
2023/05/26 18:14:22;;;;;;;1.25;1.00;;;;;;;22.14;53.64;102500.25;6246589;23;20083;-79
2023/05/26 18:16:48;;;;;;;2.53;1.20;;;;;;;22.36;53.72;102492.69;6196345;23;20042;-79
2023/05/26 18:19:13;;;;;;;1.00;0.80;;;;;;;22.04;53.20;102486.13;6196279;23;20000;-80
2023/05/26 18:21:39;;;;;;;2.25;1.45;;;;;;;21.66;55.19;102491.34;6196269;23;20012;-79
2023/05/26 18:24:05;;;;;;;3.33;1.20;;;;;;;21.38;56.57;102492.34;6221256;23;20339;-80
2023/05/26 18:26:31;;;;;;;2.13;1.15;;;;;;;21.21;58.36;102493.72;6196546;23;20020;-79
2023/05/26 18:28:57;;;;;;;2.17;1.00;;;;;;;21.16;59.36;102499.78;6246324;23;20008;-79
2023/05/26 18:31:22;;;;;;;1.38;1.08;;;;;;;21.00;59.22;102500.97;6248235;22;20424;-79
2023/05/26 18:33:48;;;;;;;1.88;1.17;;;;;;;20.79;60.90;102474.59;6246420;23;20050;-79
2023/05/26 18:36:14;;;;;;;2.50;1.23;;;;;;;20.75;61.80;102497.09;6247972;23;20026;-79
2023/05/26 18:38:40;;;;;;;1.55;1.15;;;;;;;20.47;62.39;102491.59;6246521;23;20043;-79
2023/05/26 18:41:05;;;;;;;2.22;1.20;;;;;;;21.00;62.51;102502.88;6247655;22;20003;-79
2023/05/26 18:43:31;;;;;;;3.15;1.27;;;;;;;22.75;57.21;102501.06;6247611;22;20000;-79
2023/05/26 18:45:57;;;;;;;3.45;1.40;;;;;;;23.58;53.38;102489.34;6171329;23;20016;-80
2023/05/26 18:48:22;;;;;;;1.98;1.10;;;;;;;23.60;51.44;102478.97;6246453;23;20324;-79
2023/05/26 18:50:48;;;;;;;1.80;1.20;;;;;;;24.31;50.02;102491.53;6196054;23;20004;-79
2023/05/26 18:53:14;;;;;;;3.00;1.27;;;;;;;23.51;49.59;102491.28;6247914;23;20073;-79
2023/05/26 18:55:40;;;;;;;2.25;0.90;;;;;;;22.15;53.61;102479.19;6221046;23;20016;-79
2023/05/26 18:58:05;;;;;;;2.17;0.90;;;;;;;21.23;56.60;102491.63;6246269;23;20061;-79
2023/05/26 19:00:31;;;;;;;1.40;1.02;;;;;;;20.56;60.62;102494.03;6195480;23;20006;-79
2023/05/26 19:02:59;;;;;;;2.88;1.00;;;;;;;20.23;62.75;102487.44;6221263;23;20016;-80
2023/05/26 19:05:25;;;;;;;2.70;1.13;;;;;;;20.03;62.71;102498.19;6220605;23;20458;-80
2023/05/26 19:07:51;;;;;;;3.72;1.45;;;;;;;19.87;64.77;102502.88;6220481;23;20004;-79
2023/05/26 19:10:16;;;;;;;4.03;1.38;;;;;;;19.72;66.09;102494.75;6220471;23;20087;-79
2023/05/26 19:12:42;;;;;;;3.17;1.30;;;;;;;19.67;66.87;102499.09;6245681;23;20012;-79
2023/05/26 19:15:08;;;;;;;2.67;1.05;;;;;;;19.49;67.97;102480.41;6220651;23;20053;-80
2023/05/26 19:17:34;;;;;;;2.90;1.20;;;;;;;19.49;69.20;102488.59;6247289;22;20305;-79
2023/05/26 19:20:00;;;;;;;2.90;1.20;;;;;;;19.39;69.61;102498.97;6220626;23;20016;-79
2023/05/26 19:22:25;;;;;;;2.53;1.00;;;;;;;19.28;70.38;102490.22;6220469;23;20085;-79
2023/05/26 19:24:51;;;;;;;1.48;1.00;;;;;;;19.21;71.48;102500.25;6220503;23;20011;-79
2023/05/26 19:27:16;;;;;;;4.40;1.30;;;;;;;19.03;72.63;102488.88;6220511;23;20008;-79
2023/05/26 19:29:42;;;;;;;1.60;1.10;;;;;;;18.95;74.38;102494.44;6247356;23;20367;-80
2023/05/26 19:32:10;;;;;;;2.50;1.50;;;;;;;18.77;76.13;102482.03;6247105;22;20370;-79
2023/05/26 19:34:36;;;;;;;1.48;1.00;;;;;;;18.73;77.25;102494.28;6245804;23;20007;-79
2023/05/26 19:37:02;;;;;;;2.67;1.40;;;;;;;18.72;77.66;102502.69;6245738;23;20030;-79
2023/05/26 19:39:28;;;;;;;3.35;1.40;;;;;;;18.60;77.79;102497.69;6220355;23;20035;-78
2023/05/26 19:41:53;;;;;;;3.15;1.20;;;;;;;18.51;78.59;102500.69;6245413;23;20336;-79
2023/05/26 19:44:19;;;;;;;1.50;0.85;;;;;;;18.42;79.07;102498.03;6246847;22;20110;-79
2023/05/26 19:46:45;;;;;;;2.70;1.10;;;;;;;18.34;79.85;102500.00;6247239;22;20011;-79
2023/05/26 19:49:11;;;;;;;2.92;1.45;;;;;;;18.22;80.80;102492.25;6220281;23;20008;-78
2023/05/26 19:51:37;;;;;;;3.83;1.25;;;;;;;18.05;81.70;102477.13;6245622;23;20074;-78
2023/05/26 19:54:03;;;;;;;3.58;1.27;;;;;;;18.10;82.38;102490.16;6245590;23;20419;-78
2023/05/26 19:56:29;;;;;;;2.92;1.17;;;;;;;18.06;82.95;102495.13;6245659;23;20008;-78
2023/05/26 19:58:55;;;;;;;2.22;1.13;;;;;;;17.99;83.26;102486.88;6245152;23;20004;-78
2023/05/26 20:01:20;;;;;;;3.05;1.52;;;;;;;17.83;84.31;102472.53;6247034;23;19996;-78
2023/05/26 20:03:46;;;;;;;2.28;1.50;;;;;;;17.78;85.13;102489.38;6246839;23;20000;-78
2023/05/26 20:06:11;;;;;;;2.30;1.27;;;;;;;17.62;86.22;102474.00;6220252;23;20336;-78
2023/05/26 20:08:37;;;;;;;4.20;1.45;;;;;;;17.66;87.20;102494.41;6219877;23;20004;-78
2023/05/26 20:11:03;;;;;;;6.72;1.58;;;;;;;17.62;86.98;102497.66;6220101;23;20315;-79
2023/05/26 20:13:29;;;;;;;3.38;1.33;;;;;;;17.55;86.98;102494.81;6247028;23;20448;-78
2023/05/26 20:15:55;;;;;;;3.65;1.35;;;;;;;17.49;87.32;102488.22;6170147;23;20015;-78
2023/05/26 20:18:20;;;;;;;3.30;1.60;;;;;;;17.40;87.31;102483.84;6220300;23;20004;-78
2023/05/26 20:20:46;;;;;;;2.30;1.33;;;;;;;17.35;87.80;102492.53;6219910;23;20413;-78
2023/05/26 20:23:12;;;;;;;1.58;1.13;;;;;;;17.23;88.58;102491.25;6219551;23;20066;-78
2023/05/26 20:25:38;;;;;;;3.63;1.33;;;;;;;17.12;89.45;102491.63;6169970;23;20099;-78
2023/05/26 20:28:04;;;;;;;3.10;1.38;;;;;;;17.06;90.10;102498.63;6219579;23;20043;-78
2023/05/26 20:30:30;;;;;;;2.17;0.98;;;;;;;16.91;90.84;102486.81;6219629;23;20004;-79
2023/05/26 20:32:55;;;;;;;1.70;1.23;;;;;;;16.81;91.20;102491.59;6194612;23;20091;-79
2023/05/26 20:35:21;;;;;;;2.28;1.50;;;;;;;16.66;91.92;102486.84;6219576;23;20000;-78
2023/05/26 20:37:47;;;;;;;3.35;1.63;;;;;;;16.52;93.03;102495.72;6219514;23;20000;-78
2023/05/26 20:40:21;;;;;;;2.85;1.60;;;;;;;16.39;93.91;102484.53;6246899;23;20320;-78
2023/05/26 20:42:50;;;;;;;1.75;1.40;;;;;;;16.24;95.35;102493.34;6219900;23;20000;-78
2023/05/26 20:45:19;;;;;;;2.17;1.33;;;;;;;16.13;96.67;102496.44;6195432;23;20368;-79
2023/05/26 20:47:45;;;;;;;3.53;1.60;;;;;;;16.05;96.80;102499.97;6220328;23;20428;-78
2023/05/26 20:50:11;;;;;;;2.45;1.20;;;;;;;15.93;97.31;102498.66;6220055;23;20011;-78
2023/05/26 20:52:37;;;;;;;3.38;1.48;;;;;;;15.76;98.86;102486.91;6170143;23;20008;-77
2023/05/26 20:55:03;;;;;;;2.22;1.50;;;;;;;15.58;99.32;102480.75;6219789;23;20004;-80
2023/05/26 20:57:29;;;;;;;3.33;1.70;;;;;;;15.48;100.00;102490.91;6195282;23;20004;-78
2023/05/26 20:59:54;;;;;;;3.45;1.42;;;;;;;15.29;100.00;102492.88;6227304;23;20451;-78
2023/05/26 21:02:20;;;;;;;2.17;1.25;;;;;;;15.16;100.00;102498.78;6245324;23;20004;-79
2023/05/26 21:04:45;;;;;;;2.20;1.40;;;;;;;15.00;100.00;102497.84;6245273;23;20008;-79
2023/05/26 21:07:11;;;;;;;2.55;1.25;;;;;;;14.85;100.00;102500.34;6220063;23;20020;-80
2023/05/26 21:09:37;;;;;;;3.33;1.30;;;;;;;14.71;100.00;102493.66;6245253;23;20118;-80
2023/05/26 21:12:03;;;;;;;1.80;1.25;;;;;;;14.65;100.00;102505.13;6219454;23;20004;-80
2023/05/26 21:14:28;;;;;;;3.53;1.60;;;;;;;14.50;100.00;102508.41;6194946;23;20004;-80
2023/05/26 21:16:54;;;;;;;2.65;1.52;;;;;;;14.42;100.00;102499.34;6194968;23;20051;-80
2023/05/26 21:19:20;;;;;;;3.53;1.70;;;;;;;14.33;100.00;102503.88;6220226;23;20039;-79
2023/05/26 21:21:46;;;;;;;3.47;1.80;;;;;;;14.17;100.00;102506.44;6194793;23;20393;-80
2023/05/26 21:24:12;;;;;;;2.40;1.60;;;;;;;13.91;100.00;102501.81;6194679;23;20094;-79
2023/05/26 21:26:37;;;;;;;3.38;1.88;;;;;;;13.64;100.00;102509.00;6194832;23;20100;-80
2023/05/26 21:29:03;;;;;;;2.80;1.52;;;;;;;13.47;100.00;102509.84;6194841;23;20008;-80
2023/05/26 21:31:30;;;;;;;2.25;1.50;;;;;;;13.22;100.00;102503.28;6195276;23;20016;-80
2023/05/26 21:33:55;;;;;;;3.00;1.70;;;;;;;12.95;100.00;102506.81;6194909;23;20482;-80
2023/05/26 21:36:21;;;;;;;2.88;1.88;;;;;;;12.69;100.00;102507.47;6194936;23;20000;-80
2023/05/26 21:38:47;;;;;;;3.95;1.70;;;;;;;12.48;100.00;102514.91;6194662;23;20010;-81
2023/05/26 21:41:13;;;;;;;4.35;1.70;;;;;;;12.37;100.00;102513.25;6219636;23;20027;-81
2023/05/26 21:43:38;;;;;;;2.83;1.90;;;;;;;12.31;100.00;102497.66;6194716;23;20095;-79
2023/05/26 21:46:04;;;;;;;5.05;2.10;;;;;;;12.39;100.00;102492.38;6219528;23;20305;-80
2023/05/26 21:48:30;;;;;;;3.38;2.25;;;;;;;12.40;100.00;102501.31;6194829;23;20503;-81
2023/05/26 21:50:55;;;;;;;3.08;1.98;;;;;;;12.25;100.00;102492.81;6194690;23;20014;-80
2023/05/26 21:53:21;;;;;;;4.13;2.20;;;;;;;12.17;100.00;102506.16;6219539;23;20031;-80
2023/05/26 21:55:49;;;;;;;3.63;2.17;;;;;;;12.17;100.00;102515.13;6194768;23;20004;-79
2023/05/26 21:58:15;;;;;;;3.38;2.17;;;;;;;12.15;100.00;102508.19;6195057;23;20008;-79
2023/05/26 22:00:40;;;;;;;3.78;1.65;;;;;;;12.12;100.00;102513.81;6194347;23;20102;-80
2023/05/26 22:03:06;;;;;;;4.80;1.92;;;;;;;12.05;100.00;102513.56;6194521;23;20482;-79
2023/05/26 22:05:32;;;;;;;4.05;2.00;;;;;;;11.97;100.00;102510.72;6219825;23;20001;-79
2023/05/26 22:07:57;;;;;;;2.60;1.80;;;;;;;11.80;100.00;102505.03;6194637;23;20106;-80
2023/05/26 22:10:23;;;;;;;3.28;1.90;;;;;;;11.66;100.00;102511.66;6194628;23;20012;-80
2023/05/26 22:12:50;;;;;;;2.75;1.80;;;;;;;11.58;100.00;102511.50;6219771;23;20026;-81
2023/05/26 22:15:15;;;;;;;4.53;1.90;;;;;;;11.54;100.00;102507.41;6219463;23;20004;-81
2023/05/26 22:17:41;;;;;;;5.03;2.20;;;;;;;11.52;100.00;102501.31;6194557;23;20317;-81
2023/05/26 22:20:07;;;;;;;3.88;1.90;;;;;;;11.47;100.00;102500.88;6219624;23;20015;-81
2023/05/26 22:22:33;;;;;;;3.72;2.08;;;;;;;11.51;100.00;102505.00;6194424;23;20005;-81
2023/05/26 22:24:59;;;;;;;2.80;2.00;;;;;;;11.42;100.00;102495.88;6169858;23;20432;-81
2023/05/26 22:27:26;;;;;;;2.55;2.05;;;;;;;11.43;100.00;102500.31;6194706;23;20004;-80
2023/05/26 22:29:52;;;;;;;3.22;1.88;;;;;;;11.36;100.00;102492.91;6219345;23;20004;-80
2023/05/26 22:32:18;;;;;;;3.45;1.92;;;;;;;11.30;100.00;102497.00;6219652;23;20294;-80
2023/05/26 22:34:44;;;;;;;4.05;1.88;;;;;;;11.12;100.00;102486.03;6194591;23;20012;-80
2023/05/26 22:37:09;;;;;;;3.53;2.05;;;;;;;11.08;100.00;102502.59;6219312;23;20000;-80
2023/05/26 22:39:35;;;;;;;2.17;1.63;;;;;;;11.03;100.00;102499.47;6194524;23;20035;-80
2023/05/26 22:42:01;;;;;;;4.28;2.20;;;;;;;11.02;100.00;102500.47;6194406;23;20138;-80
2023/05/26 22:44:27;;;;;;;5.50;2.10;;;;;;;10.96;100.00;102491.09;6244669;23;20003;-80
2023/05/26 22:46:54;;;;;;;3.53;1.83;;;;;;;10.94;100.00;102499.28;6194554;23;20008;-79
2023/05/26 22:49:20;;;;;;;3.22;1.88;;;;;;;10.84;100.00;102498.41;6219695;23;20301;-80
2023/05/26 22:51:46;;;;;;;2.75;2.08;;;;;;;10.72;100.00;102496.81;6220301;23;20075;-79
2023/05/26 22:54:11;;;;;;;3.95;1.98;;;;;;;10.63;100.00;102492.22;6196212;23;20095;-82
2023/05/26 22:56:40;;;;;;;3.58;2.00;;;;;;;10.45;100.00;102476.69;6196220;23;20008;-79
2023/05/26 22:59:05;;;;;;;3.17;2.00;;;;;;;10.51;100.00;102497.69;6196334;23;20012;-80
2023/05/26 23:01:31;;;;;;;5.05;2.40;;;;;;;10.50;100.00;102495.09;6171381;23;20080;-80
2023/05/26 23:03:57;;;;;;;4.35;2.33;;;;;;;10.47;100.00;102495.38;6171254;23;20016;-80
2023/05/26 23:06:22;;;;;;;3.38;2.15;;;;;;;10.48;100.00;102489.88;6171348;23;20040;-80
2023/05/26 23:08:48;;;;;;;4.47;2.10;;;;;;;10.21;100.00;102441.13;6171274;23;20069;-80
2023/05/26 23:11:14;;;;;;;3.90;2.30;;;;;;;10.51;100.00;102481.53;6196025;23;20008;-80
2023/05/26 23:13:40;;;;;;;5.35;2.40;;;;;;;10.51;100.00;102478.84;6171342;23;20332;-80
2023/05/26 23:16:05;;;;;;;3.88;2.10;;;;;;;10.49;100.00;102475.44;6171462;23;20008;-80
2023/05/26 23:18:32;;;;;;;5.55;2.35;;;;;;;10.53;100.00;102484.06;6171071;23;20344;-80
2023/05/26 23:20:58;;;;;;;9.73;2.65;;;;;;;10.57;100.00;102481.00;6171092;23;20425;-82
2023/05/26 23:23:24;;;;;;;4.07;2.40;;;;;;;10.54;100.00;102475.88;6171032;23;20099;-80
2023/05/26 23:25:49;;;;;;;3.05;2.53;;;;;;;10.47;100.00;102477.41;6221205;23;20004;-81
2023/05/26 23:28:15;;;;;;;6.68;2.85;;;;;;;10.49;100.00;102478.13;6220911;23;20018;-80
2023/05/26 23:30:41;;;;;;;5.00;2.80;;;;;;;10.46;100.00;102474.84;6195954;23;20138;-80
2023/05/26 23:33:07;;;;;;;4.03;2.53;;;;;;;10.47;100.00;102479.25;6195654;23;20336;-81
2023/05/26 23:35:33;;;;;;;3.72;2.83;;;;;;;10.39;100.00;102476.38;6220847;23;20008;-80
2023/05/26 23:38:00;;;;;;;4.60;2.28;;;;;;;10.41;100.00;102480.63;6171014;23;20087;-80
2023/05/26 23:40:27;;;;;;;3.88;3.25;;;;;;;10.21;100.00;102479.59;6171075;23;20055;-81
2023/05/26 23:43:02;;;;;;;3.83;2.80;;;;;;;10.33;100.00;102483.97;6171243;23;20011;-81
2023/05/26 23:45:28;;;;;;;5.03;2.78;;;;;;;10.27;100.00;102476.44;6171638;23;20000;-81
2023/05/26 23:47:54;;;;;;;4.72;2.90;;;;;;;10.19;100.00;102465.47;6247250;23;20015;-81
2023/05/26 23:50:20;;;;;;;6.65;2.95;;;;;;;10.16;100.00;102470.25;6220785;23;20008;-81
2023/05/26 23:52:46;;;;;;;6.28;2.70;;;;;;;10.30;100.00;102478.03;6195765;23;20003;-81
2023/05/26 23:55:12;;;;;;;5.47;2.88;;;;;;;10.32;100.00;102476.91;6170816;23;20008;-81
2023/05/26 23:57:38;;;;;;;4.97;2.72;;;;;;;10.19;100.00;102457.41;6170733;23;20000;-81
